Terminal Aerodrome Forecast
Issued by NWS Tulsa, OK

Home | Current Version | Previous Version | Text Only | Print | Product List | Glossary On
Versions: 1 2 3 4 5 6 7 8 9 10 11 12 13
000
FTUS44 KTSA 311720
TAFFSM
TAF
KFSM 311720Z 3118/0118 15007KT P6SM SCT060
     FM010100 07003KT P6SM FEW110
     FM011600 12006KT P6SM SKC=

USA.gov is the U.S. government's official web portal to all federal, state and local government web resources and services.